createdAt,value
2018-03-07T00:02:12.694Z,98417.30
2018-03-07T00:04:41.377Z,98427.20
2018-03-07T00:07:10.110Z,98420.91
2018-03-07T00:09:39.561Z,98402.33
2018-03-07T00:12:08.149Z,98421.84
2018-03-07T00:14:37.112Z,98439.16
2018-03-07T00:17:05.729Z,98453.88
2018-03-07T00:19:34.304Z,98452.13
2018-03-07T00:22:03.241Z,98445.48
2018-03-07T00:24:32.763Z,98435.36
2018-03-07T00:27:01.452Z,98428.06
2018-03-07T00:29:30.195Z,98432.27
2018-03-07T00:31:58.962Z,98424.66
2018-03-07T00:34:27.648Z,98417.62
2018-03-07T00:36:56.444Z,98424.31
2018-03-07T00:39:25.087Z,98410.22
2018-03-07T00:41:53.815Z,98398.31
2018-03-07T00:44:22.699Z,98391.00
2018-03-07T00:46:51.240Z,98387.39
2018-03-07T00:49:19.972Z,98386.92
2018-03-07T00:51:48.965Z,98384.97
2018-03-07T00:54:17.651Z,98403.57
2018-03-07T00:56:46.291Z,98379.80
2018-03-07T00:59:15.121Z,98387.71
2018-03-07T01:01:43.751Z,98385.16
2018-03-07T01:04:13.216Z,98373.14
2018-03-07T01:06:42.159Z,98363.22
2018-03-07T01:09:11.610Z,98356.59
2018-03-07T01:11:40.295Z,98371.06
2018-03-07T01:14:09.189Z,98386.81
2018-03-07T01:16:37.874Z,98391.37
2018-03-07T01:19:06.560Z,98391.77
2018-03-07T01:21:35.370Z,98396.16
2018-03-07T01:24:04.088Z,98390.64
2018-03-07T01:26:32.815Z,98384.59
2018-03-07T01:29:02.001Z,98406.25
2018-03-07T01:31:30.703Z,98415.39
2018-03-07T01:33:59.389Z,98403.20
2018-03-07T01:36:28.177Z,98392.20
2018-03-07T01:38:56.819Z,98388.57
2018-03-07T01:41:25.545Z,98380.12
2018-03-07T01:43:54.152Z,98385.81
2018-03-07T01:46:22.823Z,98392.30
2018-03-07T01:48:51.383Z,98390.13
2018-03-07T01:51:20.177Z,98381.89
2018-03-07T01:53:48.875Z,98370.99
2018-03-07T01:56:17.562Z,98372.19
2018-03-07T01:58:46.557Z,98366.58
2018-03-07T02:01:15.181Z,98386.69
2018-03-07T02:03:44.639Z,98401.14
2018-03-07T02:06:13.337Z,98408.53
2018-03-07T02:08:42.010Z,98410.02
2018-03-07T02:11:10.697Z,98415.97
2018-03-07T02:13:39.288Z,98417.66
2018-03-07T02:16:07.911Z,98416.73
2018-03-07T02:18:37.368Z,98410.36
2018-03-07T02:21:06.197Z,98404.06
2018-03-07T02:23:35.620Z,98416.71
2018-03-07T02:26:04.350Z,98418.05
2018-03-07T02:28:33.341Z,98418.81
2018-03-07T02:31:01.927Z,98408.86
2018-03-07T02:33:30.615Z,98411.28
2018-03-07T02:35:59.305Z,98402.97
2018-03-07T02:38:27.986Z,98405.91
2018-03-07T02:40:57.408Z,98416.76
2018-03-07T02:43:26.377Z,98422.70
2018-03-07T02:45:54.963Z,98414.77
2018-03-07T02:48:23.652Z,98415.45
2018-03-07T02:50:52.644Z,98430.09
2018-03-07T02:53:21.330Z,98415.78
2018-03-07T02:55:49.996Z,98411.50
2018-03-07T02:58:18.992Z,98423.61
2018-03-07T03:00:48.509Z,98423.83
2018-03-07T03:03:17.094Z,98426.60
2018-03-07T03:05:45.880Z,98425.95
2018-03-07T03:08:14.464Z,98427.12
2018-03-07T03:10:43.052Z,98420.78
2018-03-07T03:13:11.836Z,98423.52
2018-03-07T03:15:40.522Z,98425.28
2018-03-07T03:18:09.155Z,98426.82
2018-03-07T03:20:38.773Z,98421.72
2018-03-07T03:23:07.417Z,98428.11
2018-03-07T03:25:36.187Z,98429.69
2018-03-07T03:28:04.924Z,98436.66
2018-03-07T03:30:34.387Z,98445.50
2018-03-07T03:33:03.062Z,98457.18
2018-03-07T03:35:32.006Z,98455.27
2018-03-07T03:38:01.460Z,98452.92
2018-03-07T03:40:30.093Z,98448.91
2018-03-07T03:42:59.710Z,98449.64
2018-03-07T03:45:28.438Z,98461.66
2018-03-07T03:47:57.071Z,98458.55
2018-03-07T03:50:26.687Z,98464.65
2018-03-07T03:52:55.418Z,98454.91
2018-03-07T03:55:24.050Z,98461.41
2018-03-07T03:57:53.716Z,98456.94
2018-03-07T04:00:22.359Z,98459.84
2018-03-07T04:02:50.945Z,98463.67
2018-03-07T04:05:20.038Z,98463.13
2018-03-07T04:07:48.723Z,98467.87
2018-03-07T04:10:17.309Z,98477.06
2018-03-07T04:12:46.049Z,98468.08
2018-03-07T04:15:14.782Z,98461.98
2018-03-07T04:17:43.435Z,98472.16
2018-03-07T04:20:15.225Z,98476.77
2018-03-07T04:22:43.812Z,98476.59
2018-03-07T04:25:12.498Z,98478.91
2018-03-07T04:27:41.231Z,98472.78
2018-03-07T04:30:10.692Z,98477.53
2018-03-07T04:32:39.314Z,98466.96
2018-03-07T04:35:08.787Z,98459.82
2018-03-07T04:37:37.346Z,98476.16
2018-03-07T04:40:06.051Z,98477.28
2018-03-07T04:42:34.836Z,98471.97
2018-03-07T04:45:03.521Z,98468.89
2018-03-07T04:47:32.150Z,98470.72
2018-03-07T04:50:01.615Z,98464.77
2018-03-07T04:52:30.298Z,98475.07
2018-03-07T04:54:58.979Z,98483.53
2018-03-07T04:57:27.772Z,98488.92
2018-03-07T04:59:56.411Z,98489.66
2018-03-07T05:02:26.207Z,98494.77
2018-03-07T05:04:55.673Z,98507.03
2018-03-07T05:07:24.339Z,98510.50
2018-03-07T05:09:53.038Z,98511.38
2018-03-07T05:12:21.928Z,98512.19
2018-03-07T05:14:50.572Z,98514.39
2018-03-07T05:17:19.301Z,98511.33
2018-03-07T05:19:48.483Z,98511.10
2018-03-07T05:22:17.088Z,98522.20
2018-03-07T05:24:45.874Z,98521.45
2018-03-07T05:27:15.009Z,98517.92
2018-03-07T05:29:44.270Z,98529.42
2018-03-07T05:32:14.021Z,98528.22
2018-03-07T05:34:43.883Z,98526.53
2018-03-07T05:37:14.972Z,98529.31
2018-03-07T05:39:43.720Z,98524.33
2018-03-07T05:42:12.418Z,98519.84
2018-03-07T05:44:41.218Z,98531.84
2018-03-07T05:47:10.688Z,98545.63
2018-03-07T05:49:39.490Z,98547.34
2018-03-07T05:52:08.183Z,98552.75
2018-03-07T05:54:36.862Z,98556.69
2018-03-07T05:57:05.800Z,98560.94
2018-03-07T05:59:35.109Z,98580.94
2018-03-07T06:02:03.742Z,98575.66
2018-03-07T06:04:32.626Z,98565.00
2018-03-07T06:07:01.217Z,98569.86
2018-03-07T06:09:29.783Z,98564.25
2018-03-07T06:11:58.893Z,98569.41
2018-03-07T06:14:27.956Z,98568.87
2018-03-07T06:16:56.619Z,98587.44
2018-03-07T06:19:26.280Z,98579.02
2018-03-07T06:21:54.824Z,98579.44
2018-03-07T06:24:23.550Z,98570.17
2018-03-07T06:26:52.239Z,98581.38
2018-03-07T06:29:20.822Z,98585.70
2018-03-07T06:31:49.472Z,98590.29
2018-03-07T06:34:18.343Z,98584.13
2018-03-07T06:36:47.802Z,98588.28
2018-03-07T06:39:16.488Z,98586.86
2018-03-07T06:41:45.273Z,98593.29
2018-03-07T06:44:13.958Z,98599.74
2018-03-07T06:46:42.582Z,98588.29
2018-03-07T06:49:12.152Z,98603.06
2018-03-07T06:51:40.839Z,98600.49
2018-03-07T06:54:09.458Z,98600.64
2018-03-07T06:56:38.930Z,98603.86
2018-03-07T06:59:07.495Z,98609.91
2018-03-07T07:01:36.945Z,98616.05
2018-03-07T07:04:05.630Z,98613.75
2018-03-07T07:06:34.251Z,98614.17
2018-03-07T07:09:03.717Z,98613.34
2018-03-07T07:11:32.918Z,98621.14
2018-03-07T07:14:01.493Z,98626.58
2018-03-07T07:16:30.189Z,98621.78
2018-03-07T07:18:58.974Z,98630.27
2018-03-07T07:21:27.660Z,98638.18
2018-03-07T07:23:56.236Z,98640.25
2018-03-07T07:26:24.971Z,98640.19
2018-03-07T07:28:53.668Z,98646.75
2018-03-07T07:31:23.305Z,98646.30
2018-03-07T07:33:52.250Z,98641.90
2018-03-07T07:36:21.037Z,98651.11
2018-03-07T07:38:50.455Z,98652.92
2018-03-07T07:41:20.048Z,98642.44
2018-03-07T07:43:49.516Z,98641.09
2018-03-07T07:46:18.300Z,98635.63
2018-03-07T07:48:46.929Z,98638.47
2018-03-07T07:51:16.287Z,98628.57
2018-03-07T07:53:44.971Z,98636.62
2018-03-07T07:56:13.766Z,98645.67
2018-03-07T07:58:42.477Z,98645.97
2018-03-07T08:01:11.238Z,98652.22
2018-03-07T08:03:40.188Z,98648.93
2018-03-07T08:06:08.917Z,98653.14
2018-03-07T08:08:37.603Z,98653.88
2018-03-07T08:11:06.542Z,98655.20
2018-03-07T08:13:35.285Z,98655.84
2018-03-07T08:16:03.928Z,98657.94
2018-03-07T08:18:32.653Z,98661.06
2018-03-07T08:21:01.339Z,98665.90
2018-03-07T08:23:29.983Z,98668.52
2018-03-07T08:25:58.711Z,98666.73
2018-03-07T08:28:27.397Z,98670.13
2018-03-07T08:30:56.083Z,98676.33
2018-03-07T08:33:25.078Z,98682.57
2018-03-07T08:35:53.696Z,98680.33
2018-03-07T08:38:23.160Z,98681.33
2018-03-07T08:40:51.982Z,98690.22
2018-03-07T08:43:21.452Z,98685.80
2018-03-07T08:45:50.039Z,98690.78
2018-03-07T08:48:18.720Z,98696.69
2018-03-07T08:50:47.269Z,98691.69
2018-03-07T08:53:15.983Z,98691.76
2018-03-07T08:55:44.715Z,98685.75
2018-03-07T08:58:14.168Z,98685.31
2018-03-07T09:00:42.801Z,98680.68
2018-03-07T09:03:11.542Z,98684.56
2018-03-07T09:05:40.225Z,98676.27
2018-03-07T09:08:08.855Z,98681.82
2018-03-07T09:10:38.472Z,98679.05
2018-03-07T09:13:07.166Z,98668.02
2018-03-07T09:15:35.759Z,98672.70
2018-03-07T09:18:04.727Z,98674.98
2018-03-07T09:20:34.183Z,98672.08
2018-03-07T09:23:02.813Z,98658.55
2018-03-07T09:25:32.279Z,98666.41
2018-03-07T09:28:00.896Z,98677.05
2018-03-07T09:30:30.349Z,98669.19
2018-03-07T09:32:59.109Z,98667.48
2018-03-07T09:35:27.834Z,98664.21
2018-03-07T09:37:56.496Z,98669.80
2018-03-07T09:40:25.313Z,98668.88
2018-03-07T09:42:53.892Z,98675.59
2018-03-07T09:45:22.525Z,98671.47
2018-03-07T09:47:52.047Z,98671.14
2018-03-07T09:50:20.772Z,98675.56
2018-03-07T09:52:49.459Z,98670.05
2018-03-07T09:55:18.244Z,98659.94
2018-03-07T09:57:46.829Z,98659.63
2018-03-07T10:00:15.519Z,98659.05
2018-03-07T10:02:44.613Z,98658.69
2018-03-07T10:05:13.294Z,98650.53
2018-03-07T10:07:41.880Z,98656.03
2018-03-07T10:10:10.764Z,98662.92
2018-03-07T10:12:39.395Z,98655.63
2018-03-07T10:15:08.861Z,98650.32
2018-03-07T10:17:38.735Z,98651.83
2018-03-07T10:20:07.463Z,98642.16
2018-03-07T10:22:36.148Z,98653.00
2018-03-07T10:25:04.931Z,98652.98
2018-03-07T10:27:33.517Z,98653.42
2018-03-07T10:30:03.224Z,98650.05
2018-03-07T10:32:32.168Z,98656.05
2018-03-07T10:35:00.903Z,98651.66
2018-03-07T10:37:29.460Z,98647.47
2018-03-07T10:39:58.274Z,98641.09
2018-03-07T10:42:26.963Z,98647.21
2018-03-07T10:44:55.646Z,98646.52
2018-03-07T10:47:24.640Z,98639.52
2018-03-07T10:49:53.318Z,98629.23
2018-03-07T10:52:22.771Z,98617.84
2018-03-07T10:54:51.501Z,98621.72
2018-03-07T10:57:20.969Z,98618.75
2018-03-07T10:59:49.540Z,98623.59
2018-03-07T11:02:18.359Z,98614.41
2018-03-07T11:04:47.023Z,98625.97
2018-03-07T11:07:15.600Z,98622.12
2018-03-07T11:09:44.494Z,98627.94
2018-03-07T11:12:13.179Z,98630.42
2018-03-07T11:14:41.825Z,98621.77
2018-03-07T11:17:10.558Z,98619.77
2018-03-07T11:19:39.193Z,98624.59
2018-03-07T11:22:07.922Z,98621.48
2018-03-07T11:24:36.872Z,98617.45
2018-03-07T11:27:05.565Z,98607.89
2018-03-07T11:29:34.286Z,98608.70
2018-03-07T11:32:03.081Z,98608.56
2018-03-07T11:34:32.469Z,98601.54
2018-03-07T11:37:01.115Z,98605.61
2018-03-07T11:39:30.577Z,98609.69
2018-03-07T11:41:59.251Z,98606.91
2018-03-07T11:44:27.937Z,98598.34
2018-03-07T11:46:56.930Z,98590.58
2018-03-07T11:49:25.620Z,98590.63
2018-03-07T11:51:54.204Z,98589.49
2018-03-07T11:54:22.939Z,98593.14
2018-03-07T11:56:51.673Z,98582.35
2018-03-07T11:59:20.360Z,98585.67
2018-03-07T12:01:49.156Z,98579.33
2018-03-07T12:04:17.887Z,98581.17
2018-03-07T12:06:47.339Z,98578.27
2018-03-07T12:09:16.138Z,98586.05
2018-03-07T12:11:45.632Z,98592.38
2018-03-07T12:14:14.343Z,98590.13
2018-03-07T12:16:43.278Z,98590.70
2018-03-07T12:19:12.001Z,98591.96
2018-03-07T12:21:41.506Z,98597.00
2018-03-07T12:24:10.600Z,98583.09
2018-03-07T12:26:39.184Z,98577.41
2018-03-07T12:29:07.760Z,98582.45
2018-03-07T12:31:36.554Z,98587.52
2018-03-07T12:34:05.341Z,98583.39
2018-03-07T12:36:34.029Z,98580.25
2018-03-07T12:39:03.166Z,98569.88
2018-03-07T12:41:32.626Z,98569.27
2018-03-07T12:44:01.213Z,98568.41
2018-03-07T12:46:29.945Z,98573.45
2018-03-07T12:48:59.359Z,98572.30
2018-03-07T12:51:28.810Z,98570.40
2018-03-07T12:53:57.775Z,98577.25
2018-03-07T12:56:26.382Z,98572.71
2018-03-07T12:58:55.007Z,98569.52
2018-03-07T13:01:24.479Z,98567.77
2018-03-07T13:03:53.041Z,98563.80
2018-03-07T13:06:21.686Z,98572.49
2018-03-07T13:08:51.162Z,98574.81
2018-03-07T13:11:19.877Z,98566.44
2018-03-07T13:13:49.341Z,98564.94
2018-03-07T13:16:18.388Z,98562.20
2018-03-07T13:18:47.117Z,98562.34
2018-03-07T13:21:16.011Z,98560.21
2018-03-07T13:23:44.896Z,98560.61
2018-03-07T13:26:13.587Z,98561.37
2018-03-07T13:28:42.270Z,98554.67
2018-03-07T13:31:11.223Z,98559.02
2018-03-07T13:33:39.945Z,98556.56
2018-03-07T13:36:08.631Z,98552.84
2018-03-07T13:38:37.525Z,98550.42
2018-03-07T13:41:06.310Z,98551.57
2018-03-07T13:43:34.897Z,98550.34
2018-03-07T13:46:03.890Z,98552.03
2018-03-07T13:48:32.576Z,98555.53
2018-03-07T13:51:01.247Z,98554.28
2018-03-07T13:53:29.948Z,98549.75
2018-03-07T13:55:58.626Z,98552.05
2018-03-07T13:58:27.372Z,98547.38
2018-03-07T14:00:56.103Z,98546.41
2018-03-07T14:03:24.758Z,98552.91
2018-03-07T14:05:53.475Z,98548.27
2018-03-07T14:08:22.295Z,98551.94
2018-03-07T14:10:51.056Z,98552.75
2018-03-07T14:13:19.730Z,98543.11
2018-03-07T14:15:49.141Z,98546.37
2018-03-07T14:18:17.825Z,98545.29
2018-03-07T14:20:46.413Z,98540.48
2018-03-07T14:23:15.017Z,98544.13
2018-03-07T14:25:43.722Z,98546.04
2018-03-07T14:28:13.184Z,98541.27
2018-03-07T14:30:41.978Z,98547.16
2018-03-07T14:33:10.664Z,98549.17
2018-03-07T14:35:39.350Z,98540.83
2018-03-07T14:38:08.135Z,98549.77
2018-03-07T14:40:36.780Z,98549.27
2018-03-07T14:43:05.508Z,98554.04
2018-03-07T14:45:34.387Z,98554.61
2018-03-07T14:48:03.086Z,98556.25
2018-03-07T14:50:31.664Z,98550.64
2018-03-07T14:53:00.558Z,98549.73
2018-03-07T14:55:29.244Z,98550.72
2018-03-07T14:57:57.882Z,98536.83
2018-03-07T15:00:26.700Z,98534.16
2018-03-07T15:02:55.369Z,98536.92
2018-03-07T15:05:24.090Z,98534.29
2018-03-07T15:07:53.009Z,98540.23
2018-03-07T15:10:21.732Z,98532.47
2018-03-07T15:12:50.367Z,98538.13
2018-03-07T15:15:19.104Z,98535.84
2018-03-07T15:17:47.753Z,98544.41
2018-03-07T15:20:16.380Z,98542.36
2018-03-07T15:22:45.161Z,98547.39
2018-03-07T15:25:13.809Z,98535.94
2018-03-07T15:27:42.533Z,98533.63
2018-03-07T15:30:11.328Z,98536.17
2018-03-07T15:32:40.014Z,98540.07
2018-03-07T15:35:08.631Z,98539.61
2018-03-07T15:37:38.101Z,98537.81
2018-03-07T15:40:06.676Z,98539.86
2018-03-07T15:42:35.229Z,98533.03
2018-03-07T15:45:03.952Z,98540.73
2018-03-07T15:47:32.491Z,98537.56
2018-03-07T15:50:01.038Z,98536.16
2018-03-07T15:52:29.907Z,98534.55
2018-03-07T15:54:58.484Z,98531.10
2018-03-07T15:57:27.179Z,98531.00
2018-03-07T15:59:56.064Z,98533.98
2018-03-07T16:02:24.617Z,98546.13
2018-03-07T16:04:53.274Z,98549.23
2018-03-07T16:07:22.737Z,98552.48
2018-03-07T16:09:51.288Z,98551.70
2018-03-07T16:12:19.848Z,98560.58
2018-03-07T16:14:49.229Z,98560.27
2018-03-07T16:17:18.665Z,98565.91
2018-03-07T16:19:47.297Z,98567.59
2018-03-07T16:22:16.080Z,98568.41
2018-03-07T16:24:44.637Z,98572.02
2018-03-07T16:27:13.313Z,98575.00
2018-03-07T16:29:42.038Z,98572.81
2018-03-07T16:32:10.602Z,98575.20
2018-03-07T16:34:39.161Z,98573.17
2018-03-07T16:37:07.835Z,98580.18
2018-03-07T16:39:37.249Z,98585.61
2018-03-07T16:42:06.591Z,98592.27
2018-03-07T16:44:35.581Z,98599.85
2018-03-07T16:47:04.940Z,98600.70
2018-03-07T16:49:33.675Z,98602.73
2018-03-07T16:52:02.419Z,98601.23
2018-03-07T16:54:30.972Z,98603.49
2018-03-07T16:56:59.732Z,98603.28
2018-03-07T16:59:28.516Z,98615.30
2018-03-07T17:01:57.106Z,98613.20
2018-03-07T17:04:25.786Z,98613.13
2018-03-07T17:06:54.783Z,98619.78
2018-03-07T17:09:23.421Z,98624.27
2018-03-07T17:11:52.158Z,98631.02
2018-03-07T17:14:20.939Z,98633.48
2018-03-07T17:16:49.529Z,98632.13
2018-03-07T17:19:18.113Z,98633.59
2018-03-07T17:21:47.304Z,98637.35
2018-03-07T17:24:15.892Z,98644.53
2018-03-07T17:26:44.576Z,98648.39
2018-03-07T17:29:13.315Z,98652.06
2018-03-07T17:31:42.047Z,98654.01
2018-03-07T17:34:10.701Z,98656.93
2018-03-07T17:36:39.419Z,98652.90
2018-03-07T17:39:08.104Z,98655.62
2018-03-07T17:41:36.791Z,98657.88
2018-03-07T17:44:05.648Z,98657.64
2018-03-07T17:46:34.266Z,98655.91
2018-03-07T17:49:02.852Z,98660.64
2018-03-07T17:51:31.549Z,98661.71
2018-03-07T17:54:00.329Z,98662.59
2018-03-07T17:56:29.014Z,98662.34
2018-03-07T17:58:57.831Z,98670.67
2018-03-07T18:01:27.246Z,98669.09
2018-03-07T18:03:56.712Z,98666.95
2018-03-07T18:06:25.492Z,98671.58
2018-03-07T18:08:54.181Z,98678.44
2018-03-07T18:11:22.816Z,98686.34
2018-03-07T18:13:52.377Z,98684.59
2018-03-07T18:16:21.061Z,98685.01
2018-03-07T18:18:49.649Z,98685.52
2018-03-07T18:21:19.420Z,98690.66
2018-03-07T18:23:48.009Z,98695.48
2018-03-07T18:26:16.693Z,98693.13
2018-03-07T18:28:45.477Z,98694.69
2018-03-07T18:31:14.163Z,98686.18
2018-03-07T18:33:42.848Z,98687.67
2018-03-07T18:36:11.644Z,98692.13
2018-03-07T18:38:40.315Z,98690.37
2018-03-07T18:41:09.016Z,98692.17
2018-03-07T18:43:37.855Z,98693.30
2018-03-07T18:46:07.575Z,98695.71
2018-03-07T18:48:36.220Z,98705.69
2018-03-07T18:51:04.955Z,98704.73
2018-03-07T18:53:33.676Z,98711.30
2018-03-07T18:56:02.316Z,98712.73
2018-03-07T18:58:31.087Z,98718.93
2018-03-07T19:01:00.551Z,98715.30
2018-03-07T19:03:29.199Z,98713.09
2018-03-07T19:05:59.969Z,98713.55
2018-03-07T19:08:29.284Z,98710.61
2018-03-07T19:10:58.702Z,98712.91
2018-03-07T19:13:28.552Z,98711.55
2018-03-07T19:15:57.237Z,98711.11
2018-03-07T19:18:25.881Z,98710.77
2018-03-07T19:20:54.973Z,98708.83
2018-03-07T19:23:23.683Z,98716.20
2018-03-07T19:25:52.364Z,98717.12
2018-03-07T19:28:21.150Z,98718.44
2018-03-07T19:30:50.567Z,98724.71
2018-03-07T19:33:19.282Z,98724.44
2018-03-07T19:35:48.931Z,98731.61
2018-03-07T19:38:17.640Z,98749.05
2018-03-07T19:40:46.267Z,98752.55
2018-03-07T19:43:15.833Z,98763.00
2018-03-07T19:45:44.474Z,98761.63
2018-03-07T19:48:13.205Z,98763.56
2018-03-07T19:50:42.136Z,98770.22
2018-03-07T19:53:11.598Z,98766.76
2018-03-07T19:55:40.384Z,98780.56
2018-03-07T19:58:09.585Z,98771.02
2018-03-07T20:00:38.136Z,98772.47
2018-03-07T20:03:06.856Z,98770.70
2018-03-07T20:05:35.768Z,98773.82
2018-03-07T20:08:04.486Z,98781.95
2018-03-07T20:10:33.935Z,98782.81
2018-03-07T20:13:02.899Z,98784.73
2018-03-07T20:15:31.614Z,98782.47
2018-03-07T20:18:00.236Z,98783.71
2018-03-07T20:20:29.701Z,98788.33
2018-03-07T20:22:58.384Z,98790.38
2018-03-07T20:25:27.071Z,98791.35
2018-03-07T20:27:55.758Z,98798.52
2018-03-07T20:30:24.343Z,98797.30
2018-03-07T20:32:53.018Z,98792.33
2018-03-07T20:35:21.760Z,98787.08
2018-03-07T20:37:51.223Z,98786.33
2018-03-07T20:40:19.896Z,98789.37
2018-03-07T20:42:48.792Z,98791.13
2018-03-07T20:45:17.382Z,98797.37
2018-03-07T20:47:46.125Z,98805.37
2018-03-07T20:50:14.850Z,98803.73
2018-03-07T20:52:43.537Z,98804.60
2018-03-07T20:55:12.179Z,98797.00
2018-03-07T20:57:41.017Z,98789.84
2018-03-07T21:00:09.597Z,98794.28
2018-03-07T21:02:38.278Z,98793.41
2018-03-07T21:05:07.425Z,98794.55
2018-03-07T21:07:36.880Z,98792.61
2018-03-07T21:10:05.564Z,98782.41
2018-03-07T21:12:34.768Z,98798.89
2018-03-07T21:15:03.454Z,98788.73
2018-03-07T21:17:32.237Z,98784.61
2018-03-07T21:20:01.279Z,98781.45
2018-03-07T21:22:30.739Z,98792.69
2018-03-07T21:24:59.326Z,98788.00
2018-03-07T21:27:28.164Z,98789.13
2018-03-07T21:29:56.854Z,98785.38
2018-03-07T21:32:25.581Z,98797.45
2018-03-07T21:34:54.564Z,98802.98
2018-03-07T21:37:23.260Z,98798.83
2018-03-07T21:39:51.947Z,98795.64
2018-03-07T21:42:20.918Z,98787.66
2018-03-07T21:44:49.625Z,98789.17
2018-03-07T21:47:18.254Z,98782.58
2018-03-07T21:49:48.116Z,98785.29
2018-03-07T21:52:16.660Z,98789.53
2018-03-07T21:54:46.211Z,98783.30
2018-03-07T21:57:14.996Z,98783.80
2018-03-07T21:59:43.692Z,98778.03
2018-03-07T22:02:12.367Z,98783.82
2018-03-07T22:04:41.164Z,98778.59
2018-03-07T22:07:09.849Z,98785.11
2018-03-07T22:09:38.514Z,98786.52
2018-03-07T22:12:07.627Z,98789.86
2018-03-07T22:14:36.212Z,98784.77
2018-03-07T22:17:04.900Z,98785.08
2018-03-07T22:19:33.861Z,98784.77
2018-03-07T22:22:02.405Z,98784.55
2018-03-07T22:24:31.185Z,98782.69
2018-03-07T22:27:00.665Z,98790.44
2018-03-07T22:29:29.349Z,98788.70
2018-03-07T22:31:58.004Z,98787.42
2018-03-07T22:34:26.993Z,98789.41
2018-03-07T22:36:55.714Z,98793.04
2018-03-07T22:39:24.382Z,98792.52
2018-03-07T22:41:53.167Z,98794.29
2018-03-07T22:44:21.873Z,98791.16
2018-03-07T22:46:50.623Z,98796.04
2018-03-07T22:49:19.566Z,98789.44
2018-03-07T22:51:48.136Z,98786.16
2018-03-07T22:54:16.825Z,98780.21
2018-03-07T22:56:45.552Z,98784.54
2018-03-07T22:59:15.017Z,98794.48
2018-03-07T23:01:43.643Z,98793.95
2018-03-07T23:04:13.105Z,98789.66
2018-03-07T23:06:41.789Z,98800.34
2018-03-07T23:09:10.473Z,98809.27
2018-03-07T23:11:39.159Z,98810.65
2018-03-07T23:14:07.804Z,98817.38
2018-03-07T23:16:36.447Z,98819.78
2018-03-07T23:19:05.216Z,98821.22
2018-03-07T23:21:33.858Z,98824.15
2018-03-07T23:24:02.588Z,98822.61
2018-03-07T23:26:31.386Z,98828.16
2018-03-07T23:29:00.112Z,98825.41
2018-03-07T23:31:29.567Z,98822.50
2018-03-07T23:33:58.522Z,98822.31
2018-03-07T23:36:27.246Z,98832.70
2018-03-07T23:38:55.938Z,98825.95
2018-03-07T23:41:24.673Z,98825.95
2018-03-07T23:43:54.126Z,98821.69
2018-03-07T23:46:22.714Z,98820.73
2018-03-07T23:48:51.805Z,98823.42
2018-03-07T23:51:20.448Z,98817.30
2018-03-07T23:53:49.177Z,98807.19
2018-03-07T23:56:17.914Z,98803.80
2018-03-07T23:58:46.647Z,98807.68
